Time;durP1;ratioP1;P1;durP2;ratioP2;P2;SDS_P1;SDS_P2;PMS_P1;PMS_P2;Temp;Humidity;BMP_temperature;BMP_pressure;BME280_temperature;BME280_humidity;BME280_pressure;Samples;Min_cycle;Max_cycle;Signal;HPM_P1;HPM_P2
2022/03/08 00:01:56;;;;;;;7.40;2.90;;;;;;;11.59;nan;101381.97;4883523;29;20464;-87
2022/03/08 00:04:25;;;;;;;4.50;2.20;;;;;;;11.60;nan;101384.50;4898944;29;20464;-88
2022/03/08 00:06:54;;;;;;;7.83;2.97;;;;;;;11.62;nan;101393.41;4896959;29;20521;-87
2022/03/08 00:09:23;;;;;;;10.40;2.67;;;;;;;11.66;nan;101396.63;4898841;29;20485;-88
2022/03/08 00:11:51;;;;;;;7.37;2.70;;;;;;;11.67;nan;101388.22;4883394;29;20464;-88
2022/03/08 00:14:21;;;;;;;6.83;2.73;;;;;;;11.55;nan;101362.31;4883385;29;20461;-91
2022/03/08 00:16:49;;;;;;;5.10;2.10;;;;;;;11.70;nan;101379.66;4870336;29;20953;-88
2022/03/08 00:19:19;;;;;;;6.10;3.07;;;;;;;11.68;nan;101373.50;4899737;29;20808;-91
2022/03/08 00:21:47;;;;;;;15.40;3.60;;;;;;;11.72;nan;101382.19;4868278;29;20457;-90
2022/03/08 00:24:16;;;;;;;7.40;3.13;;;;;;;11.69;nan;101375.19;4882942;29;20453;-90
2022/03/08 00:26:48;;;;;;;6.10;2.43;;;;;;;11.67;nan;101376.41;4899639;29;20468;-89
2022/03/08 00:29:18;;;;;;;5.27;2.83;;;;;;;11.66;nan;101378.31;4899033;29;20491;-88
2022/03/08 00:31:46;;;;;;;4.00;2.60;;;;;;;11.61;nan;101364.31;4883514;29;20461;-90
2022/03/08 00:34:16;;;;;;;9.00;2.00;;;;;;;11.61;nan;101372.53;4869617;29;20469;-89
2022/03/08 00:36:47;;;;;;;5.00;2.10;;;;;;;11.61;nan;101375.28;4868056;29;20458;-88
2022/03/08 00:39:19;;;;;;;3.60;2.13;;;;;;;11.61;nan;101375.28;4899984;29;20487;-88
2022/03/08 00:41:49;;;;;;;9.90;2.40;;;;;;;11.56;nan;101366.75;4879547;29;20471;-89
2022/03/08 00:44:18;;;;;;;7.77;2.27;;;;;;;11.65;nan;101368.38;4893564;29;20457;-90
2022/03/08 00:46:48;;;;;;;10.07;2.10;;;;;;;11.59;nan;101355.44;4898758;29;20517;-90
2022/03/08 00:49:17;;;;;;;5.00;2.07;;;;;;;11.67;nan;101368.22;4897603;29;20481;-90
2022/03/08 00:51:46;;;;;;;5.87;2.40;;;;;;;11.66;nan;101367.34;4898358;29;20489;-90
2022/03/08 00:54:14;;;;;;;5.90;2.60;;;;;;;11.65;nan;101360.19;4882661;29;20458;-90
2022/03/08 00:56:42;;;;;;;14.57;3.00;;;;;;;11.76;nan;101370.69;4885224;29;20460;-90
2022/03/08 00:59:11;;;;;;;4.97;2.10;;;;;;;11.81;nan;101377.50;4877470;29;20445;-90
2022/03/08 01:01:39;;;;;;;4.40;2.20;;;;;;;11.82;nan;101366.38;4896191;29;20516;-92
2022/03/08 01:04:08;;;;;;;7.60;2.97;;;;;;;11.77;nan;101363.34;4833743;29;20450;-91
2022/03/08 01:06:36;;;;;;;19.67;2.67;;;;;;;11.88;nan;101370.25;4862387;29;20462;-90
2022/03/08 01:09:07;;;;;;;12.80;2.93;;;;;;;11.96;nan;101364.69;4830330;29;20508;-90
2022/03/08 01:11:39;;;;;;;14.60;1.70;;;;;;;11.97;nan;101348.06;4834378;29;20462;-90
2022/03/08 01:14:07;;;;;;;6.20;1.87;;;;;;;12.17;nan;101356.56;4832884;29;20455;-90
2022/03/08 01:16:38;;;;;;;10.00;1.70;;;;;;;12.28;nan;101347.88;4832739;29;20903;-90
2022/03/08 01:19:06;;;;;;;12.77;1.03;;;;;;;12.37;nan;101354.09;4847979;29;20451;-90
2022/03/08 01:21:37;;;;;;;4.90;1.20;;;;;;;12.38;nan;101339.34;4845463;29;21016;-89
2022/03/08 01:24:05;;;;;;;3.73;1.30;;;;;;;12.48;nan;101350.03;4874907;29;20443;-91
2022/03/08 01:26:35;;;;;;;5.93;1.87;;;;;;;12.56;nan;101348.00;4831092;29;20448;-91
2022/03/08 01:29:06;;;;;;;10.03;1.90;;;;;;;12.50;nan;101331.50;4867273;29;20488;-91
2022/03/08 01:31:34;;;;;;;6.70;1.30;;;;;;;12.62;nan;101357.38;4897463;29;20505;-90
2022/03/08 01:34:03;;;;;;;7.03;1.80;;;;;;;12.64;nan;101356.13;4881197;29;20813;-90
2022/03/08 01:36:31;;;;;;;7.03;1.50;;;;;;;12.62;nan;101347.25;4870502;29;20442;-91
2022/03/08 01:39:03;;;;;;;5.80;1.20;;;;;;;12.63;nan;101343.47;4881704;29;20828;-90
2022/03/08 01:41:32;;;;;;;12.30;3.67;;;;;;;12.76;nan;101348.25;4896493;29;20438;-90
2022/03/08 01:44:01;;;;;;;14.23;3.43;;;;;;;12.74;nan;101339.38;4897020;29;20825;-90
2022/03/08 01:46:29;;;;;;;8.30;1.80;;;;;;;12.76;nan;101340.03;4866244;29;20460;-89
2022/03/08 01:49:00;;;;;;;15.43;2.90;;;;;;;12.83;nan;101343.69;4881936;29;20481;-90
2022/03/08 01:51:28;;;;;;;20.53;1.87;;;;;;;12.84;nan;101350.03;4896686;29;20453;-90
2022/03/08 01:53:56;;;;;;;12.30;1.43;;;;;;;12.71;nan;101326.88;4881500;29;20818;-91
2022/03/08 01:56:23;;;;;;;10.20;2.70;;;;;;;12.79;nan;101345.13;4881361;29;20519;-91
2022/03/08 01:58:51;;;;;;;5.93;1.77;;;;;;;12.70;nan;101335.34;4879633;29;20511;-90
2022/03/08 02:01:19;;;;;;;7.17;1.50;;;;;;;12.74;nan;101339.38;4871741;29;20445;-91
2022/03/08 02:03:49;;;;;;;11.87;1.70;;;;;;;12.74;nan;101337.47;4881081;29;20453;-91
2022/03/08 02:06:16;;;;;;;15.20;2.40;;;;;;;12.83;nan;101357.41;4877619;29;20461;-90
2022/03/08 02:08:44;;;;;;;14.07;1.30;;;;;;;12.73;nan;101340.41;4880827;29;20480;-91
2022/03/08 02:11:13;;;;;;;9.40;2.53;;;;;;;12.77;nan;101338.97;4896946;29;20501;-91
2022/03/08 02:13:44;;;;;;;5.87;1.17;;;;;;;12.69;nan;101325.41;4882145;29;20469;-90
2022/03/08 02:16:14;;;;;;;12.30;2.03;;;;;;;12.76;nan;101323.56;4881579;29;20528;-90
2022/03/08 02:18:45;;;;;;;11.80;1.40;;;;;;;12.75;nan;101319.13;4867190;29;20454;-90
2022/03/08 02:21:13;;;;;;;12.57;1.90;;;;;;;12.71;nan;101317.81;4882012;29;20454;-92
2022/03/08 02:23:41;;;;;;;8.80;1.83;;;;;;;12.67;nan;101305.53;4882102;29;20442;-91
2022/03/08 02:26:12;;;;;;;6.80;1.47;;;;;;;12.78;nan;101313.25;4881694;29;20799;-90
2022/03/08 02:28:44;;;;;;;7.90;1.43;;;;;;;12.78;nan;101308.63;4840610;29;20456;-91
2022/03/08 02:31:12;;;;;;;5.37;1.20;;;;;;;12.74;nan;101300.97;4810788;29;20464;-91
2022/03/08 02:33:40;;;;;;;17.30;1.73;;;;;;;12.77;nan;101311.56;4810371;29;20998;-91
2022/03/08 02:36:11;;;;;;;10.10;1.70;;;;;;;12.74;nan;101303.72;4810729;29;20505;-91
2022/03/08 02:38:41;;;;;;;7.43;1.43;;;;;;;12.70;nan;101302.41;4825429;29;20452;-93
2022/03/08 02:41:09;;;;;;;5.80;1.60;;;;;;;12.74;nan;101321.00;4810493;29;20470;-90
2022/03/08 02:43:38;;;;;;;9.23;1.80;;;;;;;12.78;nan;101330.56;4810457;29;20839;-90
2022/03/08 02:46:09;;;;;;;14.27;5.03;;;;;;;12.78;nan;101341.53;4825985;29;20472;-88
2022/03/08 02:48:37;;;;;;;19.63;5.23;;;;;;;12.83;nan;101348.34;4841705;29;20459;-88
2022/03/08 02:51:10;;;;;;;11.70;2.80;;;;;;;12.80;nan;101344.09;4799261;29;20459;-88
2022/03/08 02:53:40;;;;;;;9.27;2.83;;;;;;;12.82;nan;101333.78;4857970;29;20449;-90
2022/03/08 02:56:08;;;;;;;9.10;1.93;;;;;;;12.80;nan;101328.47;4881152;29;20513;-91
2022/03/08 02:58:38;;;;;;;9.70;1.83;;;;;;;12.80;nan;101333.97;4807832;29;20450;-91
2022/03/08 03:01:07;;;;;;;13.43;1.97;;;;;;;12.81;nan;101334.81;4822627;29;20945;-90
2022/03/08 03:03:36;;;;;;;9.93;3.33;;;;;;;12.79;nan;101331.41;4810387;29;20461;-90
2022/03/08 03:06:04;;;;;;;3.20;1.73;;;;;;;12.84;nan;101328.94;4810334;29;20445;-88
2022/03/08 03:08:36;;;;;;;6.53;2.60;;;;;;;12.81;nan;101329.31;4794713;29;20471;-89
2022/03/08 03:11:07;;;;;;;6.93;2.57;;;;;;;12.84;nan;101339.91;4810946;29;20464;-90
2022/03/08 03:13:35;;;;;;;7.27;2.33;;;;;;;12.82;nan;101325.53;4824594;29;20859;-90
2022/03/08 03:16:02;;;;;;;5.80;3.10;;;;;;;12.84;nan;101328.94;4809987;29;20469;-90
2022/03/08 03:18:31;;;;;;;11.63;5.00;;;;;;;12.73;nan;101321.22;4809868;29;20463;-90
2022/03/08 03:20:59;;;;;;;6.23;3.20;;;;;;;12.80;nan;101327.63;4824824;29;20804;-89
2022/03/08 03:23:35;;;;;;;6.33;2.70;;;;;;;12.79;nan;101325.94;4843889;29;20820;-88
2022/03/08 03:26:04;;;;;;;6.10;2.53;;;;;;;12.80;nan;101330.38;4865871;29;20462;-90
2022/03/08 03:28:39;;;;;;;8.50;3.87;;;;;;;12.76;nan;101324.41;4892593;29;20465;-88
2022/03/08 03:31:08;;;;;;;3.40;1.57;;;;;;;12.76;nan;101326.31;4884466;29;20843;-90
2022/03/08 03:33:37;;;;;;;6.57;1.43;;;;;;;12.75;nan;101317.22;4899374;29;20453;-89
2022/03/08 03:36:05;;;;;;;4.97;1.40;;;;;;;12.76;nan;101310.69;4883360;29;20967;-90
2022/03/08 03:38:36;;;;;;;4.50;1.20;;;;;;;12.78;nan;101324.22;4868940;29;20983;-89
2022/03/08 03:41:04;;;;;;;5.43;1.60;;;;;;;12.77;nan;101312.41;4899166;29;20457;-90
2022/03/08 03:43:34;;;;;;;2.20;1.30;;;;;;;12.78;nan;101318.75;4884000;29;20460;-88
2022/03/08 03:46:04;;;;;;;2.27;1.00;;;;;;;12.76;nan;101315.34;4869252;29;20438;-91
2022/03/08 03:48:34;;;;;;;9.47;1.17;;;;;;;12.75;nan;101321.88;4891818;29;20430;-89
2022/03/08 03:51:02;;;;;;;2.90;0.63;;;;;;;12.77;nan;101322.53;4889471;29;20489;-90
2022/03/08 03:53:30;;;;;;;3.20;0.80;;;;;;;12.73;nan;101319.31;4902650;29;20468;-90
2022/03/08 03:55:58;;;;;;;3.43;1.13;;;;;;;12.66;nan;101318.41;4884727;29;20516;-91
2022/03/08 03:58:27;;;;;;;3.73;1.60;;;;;;;12.72;nan;101336.81;4883612;29;20461;-89
2022/03/08 04:00:56;;;;;;;9.20;1.40;;;;;;;12.70;nan;101338.06;4883952;29;20441;-89
2022/03/08 04:03:23;;;;;;;7.20;1.00;;;;;;;12.71;nan;101343.34;4899355;29;20458;-88
2022/03/08 04:05:51;;;;;;;4.90;1.10;;;;;;;12.72;nan;101346.94;4883927;29;20461;-88
2022/03/08 04:08:23;;;;;;;4.03;0.90;;;;;;;12.75;nan;101365.75;4871789;29;20956;-88
2022/03/08 04:10:52;;;;;;;4.73;0.97;;;;;;;12.70;nan;101362.75;4880226;29;20482;-88
2022/03/08 04:13:19;;;;;;;6.13;1.80;;;;;;;12.65;nan;101357.00;4860333;29;20447;-89
2022/03/08 04:15:48;;;;;;;5.63;1.43;;;;;;;12.70;nan;101368.25;4883461;29;20501;-88
2022/03/08 04:18:17;;;;;;;4.10;0.93;;;;;;;12.68;nan;101356.63;4864779;29;20469;-90
2022/03/08 04:20:47;;;;;;;7.47;1.20;;;;;;;12.65;nan;101359.75;4879773;29;20490;-90
2022/03/08 04:23:16;;;;;;;3.47;0.90;;;;;;;12.58;nan;101361.53;4868300;29;20846;-90
2022/03/08 04:25:45;;;;;;;11.93;1.17;;;;;;;12.57;nan;101362.56;4900014;29;20464;-89
2022/03/08 04:28:12;;;;;;;5.13;1.03;;;;;;;12.54;nan;101371.19;4898799;29;20449;-88
2022/03/08 04:30:40;;;;;;;7.67;1.47;;;;;;;12.51;nan;101377.88;4868389;29;20488;-88
2022/03/08 04:33:15;;;;;;;6.67;1.20;;;;;;;12.47;nan;101382.09;4868165;29;20453;-90
2022/03/08 04:36:08;;;;;;;5.47;2.23;;;;;;;12.45;nan;101374.03;4898355;29;20908;-90
2022/03/08 04:38:37;;;;;;;6.87;0.93;;;;;;;12.39;nan;101372.06;4894009;29;20454;-88
2022/03/08 04:41:06;;;;;;;6.63;1.60;;;;;;;12.32;nan;101368.38;4849522;29;20458;-88
2022/03/08 04:43:33;;;;;;;9.00;2.03;;;;;;;12.25;nan;101361.97;4866056;29;20458;-88
2022/03/08 04:46:01;;;;;;;3.73;1.73;;;;;;;12.19;nan;101361.84;4883103;29;20453;-90
2022/03/08 04:48:31;;;;;;;3.53;0.90;;;;;;;12.05;nan;101355.34;4867958;29;20456;-89
2022/03/08 04:51:03;;;;;;;5.73;1.37;;;;;;;12.08;nan;101377.75;4898374;29;21004;-88
2022/03/08 04:53:34;;;;;;;8.10;2.03;;;;;;;11.97;nan;101380.06;4899264;29;20462;-87
2022/03/08 04:56:02;;;;;;;7.33;1.63;;;;;;;11.93;nan;101385.06;4867581;29;20458;-89
2022/03/08 04:58:31;;;;;;;7.63;1.67;;;;;;;11.87;nan;101380.38;4897680;29;21027;-87
2022/03/08 05:00:59;;;;;;;5.10;1.30;;;;;;;11.81;nan;101385.72;4896585;29;20445;-89
2022/03/08 05:03:29;;;;;;;4.63;1.07;;;;;;;11.75;nan;101396.34;4899116;29;20458;-89
2022/03/08 05:05:58;;;;;;;8.17;1.33;;;;;;;11.70;nan;101407.03;4898302;29;21016;-89
2022/03/08 05:08:26;;;;;;;12.80;2.40;;;;;;;11.61;nan;101394.44;4897568;29;20524;-90
2022/03/08 05:10:54;;;;;;;9.83;2.00;;;;;;;11.61;nan;101396.31;4881722;29;20481;-90
2022/03/08 05:13:22;;;;;;;6.57;1.50;;;;;;;11.46;nan;101379.00;4898947;29;20461;-89
2022/03/08 05:15:50;;;;;;;6.87;1.90;;;;;;;11.45;nan;101380.88;4882350;29;20456;-88
2022/03/08 05:18:29;;;;;;;10.70;1.97;;;;;;;11.50;nan;101405.84;4897351;29;20453;-91
2022/03/08 05:20:58;;;;;;;4.50;1.27;;;;;;;11.43;nan;101393.91;4899172;29;20465;-90
2022/03/08 05:23:29;;;;;;;5.03;1.67;;;;;;;11.48;nan;101402.44;4881381;29;20461;-90
2022/03/08 05:25:58;;;;;;;10.90;1.97;;;;;;;11.52;nan;101408.38;4882848;29;20454;-90
2022/03/08 05:28:27;;;;;;;11.47;2.17;;;;;;;11.51;nan;101407.53;4829211;29;20499;-88
2022/03/08 05:30:56;;;;;;;13.83;2.37;;;;;;;11.55;nan;101402.53;4813459;29;20494;-88
2022/03/08 05:33:30;;;;;;;13.77;3.57;;;;;;;11.60;nan;101409.16;4829069;29;20456;-88
2022/03/08 05:35:58;;;;;;;10.33;2.00;;;;;;;11.63;nan;101399.72;4829848;29;21078;-87
2022/03/08 05:38:26;;;;;;;13.03;2.30;;;;;;;11.62;nan;101393.41;4828724;29;20508;-88
2022/03/08 05:40:55;;;;;;;8.77;1.57;;;;;;;11.64;nan;101405.03;4844158;29;20982;-91
2022/03/08 05:43:24;;;;;;;14.53;3.33;;;;;;;11.53;nan;101400.00;4859223;29;20463;-91
2022/03/08 05:45:53;;;;;;;5.63;1.93;;;;;;;11.46;nan;101398.16;4836647;29;20457;-89
2022/03/08 05:48:22;;;;;;;10.60;2.10;;;;;;;11.40;nan;101400.59;4896775;29;20517;-88
2022/03/08 05:50:51;;;;;;;9.30;1.90;;;;;;;11.40;nan;101410.69;4866229;29;20595;-88
2022/03/08 05:53:19;;;;;;;9.03;1.60;;;;;;;11.30;nan;101415.56;4866466;29;20454;-88
2022/03/08 05:55:47;;;;;;;6.30;1.43;;;;;;;11.25;nan;101429.78;4866388;29;20555;-88
2022/03/08 05:58:16;;;;;;;11.23;3.00;;;;;;;11.21;nan;101433.91;4866199;29;20453;-89
2022/03/08 06:00:44;;;;;;;11.30;2.00;;;;;;;11.20;nan;101436.81;4898230;29;20450;-88
2022/03/08 06:03:13;;;;;;;8.47;1.93;;;;;;;11.14;nan;101429.38;4881755;29;20449;-88
2022/03/08 06:05:42;;;;;;;6.93;1.37;;;;;;;11.04;nan;101427.69;4881870;29;20457;-90
2022/03/08 06:08:12;;;;;;;6.90;1.73;;;;;;;10.97;nan;101434.91;4893533;29;20465;-88
2022/03/08 06:10:40;;;;;;;11.80;2.57;;;;;;;10.89;nan;101445.91;4896763;29;20485;-87
2022/03/08 06:13:10;;;;;;;11.67;1.93;;;;;;;10.78;nan;101454.50;4879632;29;20454;-88
2022/03/08 06:15:38;;;;;;;8.07;2.23;;;;;;;10.68;nan;101454.72;4863243;29;20453;-87
2022/03/08 06:18:05;;;;;;;5.50;1.70;;;;;;;10.60;nan;101467.56;4874445;29;20466;-88
2022/03/08 06:20:33;;;;;;;4.30;1.70;;;;;;;10.54;nan;101462.81;4897007;29;20818;-85
2022/03/08 06:23:02;;;;;;;7.33;1.20;;;;;;;10.53;nan;101469.31;4883944;29;20952;-89
2022/03/08 06:25:30;;;;;;;4.57;1.37;;;;;;;10.46;nan;101471.03;4880748;29;20465;-90
2022/03/08 06:27:58;;;;;;;7.87;1.90;;;;;;;10.35;nan;101459.44;4884594;29;20491;-88
2022/03/08 06:30:27;;;;;;;4.90;1.33;;;;;;;10.33;nan;101486.09;4888790;29;20478;-88
2022/03/08 06:32:56;;;;;;;6.17;1.87;;;;;;;10.26;nan;101482.34;4866885;29;20885;-88
2022/03/08 06:35:24;;;;;;;8.07;1.90;;;;;;;10.22;nan;101491.91;4866622;29;20864;-88
2022/03/08 06:37:52;;;;;;;6.90;1.53;;;;;;;10.08;nan;101487.13;4851754;29;20443;-89
2022/03/08 06:40:19;;;;;;;8.00;1.43;;;;;;;10.02;nan;101493.25;4883332;29;20450;-88
2022/03/08 06:42:47;;;;;;;7.20;1.20;;;;;;;9.99;nan;101499.94;4882019;29;20463;-89
2022/03/08 06:45:17;;;;;;;8.90;1.60;;;;;;;9.92;nan;101511.72;4851765;29;20454;-89
2022/03/08 06:47:45;;;;;;;4.87;1.30;;;;;;;9.87;nan;101512.22;4900262;29;20445;-89
2022/03/08 06:50:13;;;;;;;8.40;2.00;;;;;;;9.84;nan;101517.16;4900298;29;21002;-88
2022/03/08 06:52:41;;;;;;;9.33;2.00;;;;;;;9.77;nan;101514.28;4899928;29;20461;-89
2022/03/08 06:55:10;;;;;;;5.50;1.40;;;;;;;9.65;nan;101508.28;4899172;29;20445;-88
2022/03/08 06:57:37;;;;;;;4.23;1.30;;;;;;;9.70;nan;101543.25;4914591;29;20940;-88
2022/03/08 07:00:07;;;;;;;8.50;1.70;;;;;;;9.54;nan;101538.63;4888628;29;20461;-88
2022/03/08 07:02:35;;;;;;;5.37;1.33;;;;;;;9.57;nan;101562.88;4896238;29;20834;-88
2022/03/08 07:05:04;;;;;;;3.87;1.30;;;;;;;9.43;nan;101563.50;4899586;29;20445;-89
2022/03/08 07:07:32;;;;;;;7.87;1.90;;;;;;;9.46;nan;101590.44;4883708;29;20434;-88
2022/03/08 07:10:01;;;;;;;4.77;1.53;;;;;;;9.42;nan;101585.50;4899070;29;20437;-89
2022/03/08 07:12:34;;;;;;;9.93;2.53;;;;;;;9.47;nan;101592.16;4869471;29;20453;-88
2022/03/08 07:15:03;;;;;;;9.87;2.00;;;;;;;9.47;nan;101585.84;4869873;29;20536;-88
2022/03/08 07:17:32;;;;;;;8.37;3.50;;;;;;;9.51;nan;101596.25;4900986;29;20929;-88
2022/03/08 07:20:01;;;;;;;8.13;2.03;;;;;;;9.60;nan;101610.81;4898922;29;20450;-88
2022/03/08 07:22:33;;;;;;;9.13;1.90;;;;;;;9.70;nan;101609.63;4884194;29;20434;-89
2022/03/08 07:25:02;;;;;;;7.20;2.33;;;;;;;9.67;nan;101587.25;4899120;29;20500;-88
2022/03/08 07:27:31;;;;;;;8.00;2.07;;;;;;;9.78;nan;101586.09;4899518;29;20465;-88
2022/03/08 07:30:00;;;;;;;9.70;2.37;;;;;;;9.88;nan;101586.78;4883558;29;20442;-88
2022/03/08 07:32:28;;;;;;;12.07;2.10;;;;;;;9.94;nan;101597.91;4883374;29;20449;-89
2022/03/08 07:34:56;;;;;;;7.20;2.63;;;;;;;9.92;nan;101612.75;4897766;29;20485;-88
2022/03/08 07:37:24;;;;;;;9.50;3.27;;;;;;;10.03;nan;101626.91;4898738;29;20445;-89
2022/03/08 07:39:52;;;;;;;6.67;1.63;;;;;;;10.15;nan;101616.53;4897562;29;20453;-88
2022/03/08 07:42:20;;;;;;;9.70;2.10;;;;;;;10.15;nan;101591.94;4881518;29;20958;-88
2022/03/08 07:44:48;;;;;;;7.53;2.03;;;;;;;10.16;nan;101584.59;4865519;29;20495;-88
2022/03/08 07:47:26;;;;;;;9.97;2.40;;;;;;;10.21;nan;101607.66;4885312;29;20461;-87
2022/03/08 07:49:54;;;;;;;13.03;5.03;;;;;;;10.26;nan;101621.66;4898378;29;20464;-87
2022/03/08 07:52:25;;;;;;;11.73;4.97;;;;;;;10.25;nan;101627.31;4905060;29;20476;-88
2022/03/08 07:54:52;;;;;;;10.33;3.60;;;;;;;10.38;nan;101642.19;4883940;29;20465;-89
2022/03/08 07:57:20;;;;;;;10.17;3.20;;;;;;;10.45;nan;101634.13;4890677;29;20443;-88
2022/03/08 07:59:48;;;;;;;11.90;3.67;;;;;;;10.51;nan;101629.88;4895807;29;20454;-88
2022/03/08 08:02:17;;;;;;;7.23;3.10;;;;;;;10.59;nan;101647.09;4892451;29;20446;-88
2022/03/08 08:04:45;;;;;;;7.87;2.80;;;;;;;10.63;nan;101631.22;4897411;29;20500;-88
2022/03/08 08:07:13;;;;;;;16.60;5.13;;;;;;;10.73;nan;101626.44;4898813;29;20458;-88
2022/03/08 08:09:41;;;;;;;8.60;3.03;;;;;;;10.78;nan;101607.59;4865760;29;20450;-88
2022/03/08 08:12:09;;;;;;;8.50;2.60;;;;;;;10.71;nan;101579.28;4883402;29;20487;-88
2022/03/08 08:14:37;;;;;;;13.77;3.90;;;;;;;10.86;nan;101624.00;4899205;29;20548;-87
2022/03/08 08:17:04;;;;;;;16.63;8.03;;;;;;;10.90;nan;101639.06;4866952;29;20830;-90
2022/03/08 08:19:33;;;;;;;13.97;5.90;;;;;;;10.97;nan;101639.19;4898108;29;20465;-88
2022/03/08 08:22:00;;;;;;;7.50;3.43;;;;;;;11.07;nan;101651.66;4883694;29;20449;-90
2022/03/08 08:24:30;;;;;;;11.83;3.03;;;;;;;11.11;nan;101670.47;4871128;29;20879;-88
2022/03/08 08:26:57;;;;;;;10.70;2.70;;;;;;;11.22;nan;101660.00;4882858;29;20461;-90
2022/03/08 08:29:25;;;;;;;10.27;2.27;;;;;;;11.30;nan;101657.25;4898888;29;20458;-88
2022/03/08 08:31:54;;;;;;;9.80;1.90;;;;;;;11.38;nan;101664.56;4882466;29;20871;-88
2022/03/08 08:34:22;;;;;;;10.93;2.60;;;;;;;11.45;nan;101681.97;4887701;29;20471;-88
2022/03/08 08:36:50;;;;;;;14.77;3.10;;;;;;;11.57;nan;101686.03;4882972;29;20449;-88
2022/03/08 08:39:20;;;;;;;14.60;4.67;;;;;;;11.59;nan;101670.28;4882691;29;20449;-87
2022/03/08 08:41:49;;;;;;;15.40;4.43;;;;;;;11.85;nan;101686.47;4897268;29;20442;-89
2022/03/08 08:44:17;;;;;;;19.10;5.43;;;;;;;11.99;nan;101684.84;4897528;29;20955;-88
2022/03/08 08:46:47;;;;;;;28.80;6.93;;;;;;;12.10;nan;101698.16;4862680;29;20438;-87
2022/03/08 08:49:15;;;;;;;23.27;7.90;;;;;;;12.15;nan;101689.38;4898861;29;20931;-88
2022/03/08 08:51:43;;;;;;;17.17;6.80;;;;;;;12.25;nan;101696.34;4898498;29;20545;-87
2022/03/08 08:54:11;;;;;;;18.23;5.37;;;;;;;12.30;nan;101690.31;4864108;29;20454;-87
2022/03/08 08:56:46;;;;;;;16.50;4.80;;;;;;;12.42;nan;101702.56;4898714;29;20457;-86
2022/03/08 08:59:14;;;;;;;12.73;4.50;;;;;;;12.48;nan;101695.50;4911008;29;20449;-89
2022/03/08 09:01:42;;;;;;;17.70;5.20;;;;;;;12.63;nan;101699.13;4881033;29;20461;-86
2022/03/08 09:04:10;;;;;;;20.17;5.17;;;;;;;12.68;nan;101696.69;4897528;29;20453;-85
2022/03/08 09:06:41;;;;;;;20.90;4.97;;;;;;;12.79;nan;101701.75;4896747;29;20462;-86
2022/03/08 09:09:09;;;;;;;17.80;5.13;;;;;;;12.90;nan;101719.63;4897230;29;20546;-87
2022/03/08 09:11:37;;;;;;;14.77;4.60;;;;;;;12.99;nan;101724.03;4897405;29;20552;-88
2022/03/08 09:14:06;;;;;;;18.20;4.73;;;;;;;12.99;nan;101711.16;4869177;29;20497;-85
2022/03/08 09:16:34;;;;;;;21.03;4.80;;;;;;;13.06;nan;101723.09;4897743;29;20811;-87
2022/03/08 09:19:04;;;;;;;23.23;7.63;;;;;;;13.08;nan;101717.44;4860611;29;20502;-93
2022/03/08 09:21:32;;;;;;;27.77;7.53;;;;;;;13.14;nan;101722.16;4865475;29;20968;-90
2022/03/08 09:24:00;;;;;;;18.37;4.33;;;;;;;13.39;nan;101748.38;4882791;29;20479;-91
2022/03/08 09:26:28;;;;;;;26.70;4.77;;;;;;;13.51;nan;101737.75;4882534;29;20811;-91
2022/03/08 09:28:56;;;;;;;18.53;4.23;;;;;;;13.57;nan;101745.25;4882383;29;20969;-92
2022/03/08 09:31:25;;;;;;;23.77;6.70;;;;;;;13.74;nan;101749.50;4825397;29;20490;-89
2022/03/08 09:33:56;;;;;;;23.27;5.03;;;;;;;13.86;nan;101752.63;4809959;29;20467;-91
2022/03/08 09:36:24;;;;;;;16.30;3.80;;;;;;;13.92;nan;101746.38;4840187;29;20591;-90
2022/03/08 09:38:52;;;;;;;21.87;4.60;;;;;;;14.08;nan;101761.78;4810259;29;20456;-89
2022/03/08 09:41:21;;;;;;;18.93;5.10;;;;;;;14.08;nan;101746.16;4810918;29;20456;-88
2022/03/08 09:43:50;;;;;;;14.47;2.93;;;;;;;14.25;nan;101770.66;4811034;29;20844;-91
2022/03/08 09:46:18;;;;;;;18.30;3.90;;;;;;;14.28;nan;101779.38;4807704;29;20461;-90
2022/03/08 09:48:46;;;;;;;10.50;2.80;;;;;;;14.33;nan;101787.91;4805930;29;20448;-90
2022/03/08 09:51:13;;;;;;;32.77;5.73;;;;;;;14.35;nan;101779.47;4864395;29;20552;-89
2022/03/08 09:53:44;;;;;;;11.20;3.10;;;;;;;14.36;nan;101771.03;4881584;29;20460;-92
2022/03/08 09:56:13;;;;;;;11.93;3.20;;;;;;;14.48;nan;101779.66;4867756;29;20450;-92
2022/03/08 09:58:45;;;;;;;18.67;2.37;;;;;;;14.64;nan;101786.81;4867128;29;20506;-90
2022/03/08 10:01:13;;;;;;;9.73;2.57;;;;;;;14.72;nan;101797.72;4864421;29;20442;-90
2022/03/08 10:03:43;;;;;;;14.00;2.90;;;;;;;14.73;nan;101783.75;4852897;29;20457;-90
2022/03/08 10:06:11;;;;;;;22.87;4.97;;;;;;;14.68;nan;101802.75;4877995;29;20463;-90
2022/03/08 10:08:39;;;;;;;19.20;4.20;;;;;;;14.78;nan;101799.69;4874244;29;20465;-88
2022/03/08 10:11:12;;;;;;;19.03;4.30;;;;;;;14.98;nan;101794.38;4864936;29;21046;-91
2022/03/08 10:13:48;;;;;;;13.50;3.90;;;;;;;14.99;nan;101791.44;4897027;29;20453;-91
2022/03/08 10:16:24;;;;;;;23.20;7.20;;;;;;;15.02;nan;101780.00;4877356;29;20477;-91
2022/03/08 10:18:56;;;;;;;13.87;3.23;;;;;;;15.11;nan;101773.31;4897290;29;20445;-91
2022/03/08 10:21:31;;;;;;;16.40;2.90;;;;;;;15.31;nan;101773.50;4894816;29;20464;-91
2022/03/08 10:24:15;;;;;;;20.50;3.13;;;;;;;15.49;nan;101775.75;4881572;29;20472;-91
2022/03/08 10:26:46;;;;;;;12.97;2.33;;;;;;;15.68;nan;101782.47;4895093;29;20962;-90
2022/03/08 10:29:36;;;;;;;18.57;7.20;;;;;;;15.82;nan;101793.38;4879646;29;20464;-91
2022/03/08 10:32:19;;;;;;;15.30;6.50;;;;;;;15.83;nan;101795.06;4879030;29;20537;-93
2022/03/08 10:34:48;;;;;;;21.33;6.13;;;;;;;16.08;nan;101823.03;4878511;29;20884;-91
2022/03/08 10:37:19;;;;;;;26.80;10.57;;;;;;;16.18;nan;101828.16;4881714;29;20815;-91
2022/03/08 10:39:56;;;;;;;21.20;5.87;;;;;;;16.18;nan;101828.16;4882452;29;20450;-90
2022/03/08 10:42:37;;;;;;;18.67;3.13;;;;;;;16.08;nan;101816.66;4881460;29;20449;-91
2022/03/08 10:45:10;;;;;;;24.10;3.57;;;;;;;16.23;nan;101818.22;4866124;29;20960;-92
2022/03/08 10:47:50;;;;;;;15.70;4.67;;;;;;;16.48;nan;101820.44;4865060;29;20457;-84
2022/03/08 10:50:19;;;;;;;8.60;2.57;;;;;;;16.63;nan;101831.31;4880842;29;20460;-83
2022/03/08 10:52:48;;;;;;;16.63;3.10;;;;;;;16.75;nan;101830.53;4882831;29;20473;-83
2022/03/08 10:55:16;;;;;;;25.33;6.00;;;;;;;16.87;nan;101826.13;4879609;29;20457;-83
2022/03/08 10:57:55;;;;;;;19.77;8.20;;;;;;;16.89;nan;101810.19;4888027;29;20453;-83
2022/03/08 11:00:30;;;;;;;14.50;4.33;;;;;;;16.91;nan;101796.19;4896009;29;20797;-83
2022/03/08 11:29:17;;;;;;;12.33;4.00;;;;;;;17.65;nan;101790.47;4858443;29;20494;-81
2022/03/08 12:24:56;;;;;;;16.90;2.17;;;;;;;18.93;nan;101805.31;4899938;29;20841;-83
2022/03/08 12:27:25;;;;;;;16.47;2.43;;;;;;;18.98;nan;101811.06;4894800;29;21073;-84
2022/03/08 12:30:04;;;;;;;12.07;1.77;;;;;;;18.69;nan;101811.63;4878639;29;20469;-84
2022/03/08 12:32:37;;;;;;;16.53;1.90;;;;;;;18.60;nan;101803.59;4864879;29;21020;-84
2022/03/08 12:35:15;;;;;;;11.10;2.37;;;;;;;18.81;nan;101804.34;4864730;29;20450;-84
2022/03/08 12:37:46;;;;;;;12.73;2.50;;;;;;;18.91;nan;101804.69;4879489;29;20458;-83
2022/03/08 12:40:19;;;;;;;12.60;2.30;;;;;;;18.79;nan;101798.19;4880462;29;20470;-83
2022/03/08 12:42:59;;;;;;;15.17;2.27;;;;;;;19.02;nan;101792.91;4879578;29;20454;-84
2022/03/08 12:45:29;;;;;;;9.40;2.50;;;;;;;19.04;nan;101796.31;4848874;29;20481;-83
2022/03/08 12:48:13;;;;;;;16.73;2.80;;;;;;;19.02;nan;101801.22;4864068;29;20455;-84
2022/03/08 13:56:03;;;;;;;21.77;2.70;;;;;;;19.81;nan;101730.38;4876649;29;20473;-84
2022/03/08 13:58:46;;;;;;;9.93;2.70;;;;;;;19.95;nan;101743.84;4878575;29;20866;-84
2022/03/08 14:01:23;;;;;;;19.80;2.37;;;;;;;19.92;nan;101769.28;4879479;29;20937;-84
2022/03/08 14:03:56;;;;;;;12.37;2.90;;;;;;;19.94;nan;101753.25;4850350;29;20462;-83
2022/03/08 16:49:07;;;;;;;26.77;3.00;;;;;;;18.63;nan;101767.16;4881180;29;20406;-86
2022/03/08 17:27:22;;;;;;;12.63;2.30;;;;;;;18.11;nan;101803.34;4860233;29;20438;-91
2022/03/08 17:29:51;;;;;;;13.53;2.30;;;;;;;17.79;nan;101770.03;4861210;29;20447;-92
2022/03/08 17:32:26;;;;;;;15.70;2.73;;;;;;;17.75;nan;101784.50;4831145;29;20483;-91
2022/03/08 17:34:55;;;;;;;18.43;2.73;;;;;;;17.75;nan;101779.81;4831660;29;20884;-91